sensor_id;sensor_type;location;lat;lon;timestamp;pressure;altitude;pressure_sealevel;temperature;humidity
11682;BME280;5897;42.640;23.310;2023-04-05T00:02:26;93385.13;;;0.67;100.00
11682;BME280;5897;42.640;23.310;2023-04-05T00:04:56;93385.50;;;0.58;100.00
11682;BME280;5897;42.640;23.310;2023-04-05T00:07:25;93380.59;;;0.60;100.00
11682;BME280;5897;42.640;23.310;2023-04-05T00:09:52;93377.53;;;0.58;100.00
11682;BME280;5897;42.640;23.310;2023-04-05T00:12:19;93369.56;;;0.58;100.00
11682;BME280;5897;42.640;23.310;2023-04-05T00:14:46;93378.66;;;0.47;100.00
11682;BME280;5897;42.640;23.310;2023-04-05T00:17:13;93379.38;;;0.44;100.00
11682;BME280;5897;42.640;23.310;2023-04-05T00:19:41;93375.56;;;0.38;100.00
11682;BME280;5897;42.640;23.310;2023-04-05T00:22:09;93374.06;;;0.37;100.00
11682;BME280;5897;42.640;23.310;2023-04-05T00:24:37;93344.47;;;0.31;100.00
11682;BME280;5897;42.640;23.310;2023-04-05T00:27:07;93372.56;;;0.53;100.00
11682;BME280;5897;42.640;23.310;2023-04-05T00:29:34;93370.63;;;0.33;100.00
11682;BME280;5897;42.640;23.310;2023-04-05T00:32:01;93384.72;;;0.51;100.00
11682;BME280;5897;42.640;23.310;2023-04-05T00:34:28;93381.69;;;0.52;100.00
11682;BME280;5897;42.640;23.310;2023-04-05T00:36:58;93379.03;;;0.45;100.00
11682;BME280;5897;42.640;23.310;2023-04-05T00:39:25;93371.03;;;0.45;100.00
11682;BME280;5897;42.640;23.310;2023-04-05T00:41:52;93378.25;;;0.41;100.00
11682;BME280;5897;42.640;23.310;2023-04-05T00:44:19;93381.69;;;0.49;100.00
11682;BME280;5897;42.640;23.310;2023-04-05T00:46:45;93381.31;;;0.54;100.00
11682;BME280;5897;42.640;23.310;2023-04-05T00:49:12;93378.28;;;0.55;100.00
11682;BME280;5897;42.640;23.310;2023-04-05T00:51:39;93373.34;;;0.50;100.00
11682;BME280;5897;42.640;23.310;2023-04-05T00:54:08;93390.81;;;0.62;100.00
11682;BME280;5897;42.640;23.310;2023-04-05T00:56:36;93384.75;;;0.54;100.00
11682;BME280;5897;42.640;23.310;2023-04-05T00:59:03;93392.38;;;0.66;100.00
11682;BME280;5897;42.640;23.310;2023-04-05T01:01:31;93390.88;;;0.79;100.00
11682;BME280;5897;42.640;23.310;2023-04-05T01:04:02;93385.16;;;0.77;100.00
11682;BME280;5897;42.640;23.310;2023-04-05T01:06:46;93390.84;;;0.76;100.00
11682;BME280;5897;42.640;23.310;2023-04-05T01:09:33;93395.75;;;0.49;100.00
11682;BME280;5897;42.640;23.310;2023-04-05T01:12:05;93383.97;;;0.47;100.00
11682;BME280;5897;42.640;23.310;2023-04-05T01:14:42;93382.47;;;0.53;100.00
11682;BME280;5897;42.640;23.310;2023-04-05T01:17:09;93394.97;;;0.59;100.00
11682;BME280;5897;42.640;23.310;2023-04-05T01:19:36;93391.16;;;0.46;100.00
11682;BME280;5897;42.640;23.310;2023-04-05T01:25:21;93399.91;;;0.57;100.00
11682;BME280;5897;42.640;23.310;2023-04-05T01:30:48;93404.09;;;0.51;100.00
11682;BME280;5897;42.640;23.310;2023-04-05T01:33:33;93402.94;;;0.52;100.00
11682;BME280;5897;42.640;23.310;2023-04-05T01:36:03;93396.53;;;0.67;100.00
11682;BME280;5897;42.640;23.310;2023-04-05T01:38:31;93390.09;;;0.68;100.00
11682;BME280;5897;42.640;23.310;2023-04-05T01:40:59;93394.63;;;0.61;100.00
11682;BME280;5897;42.640;23.310;2023-04-05T01:43:25;93387.78;;;0.63;100.00
11682;BME280;5897;42.640;23.310;2023-04-05T01:45:54;93395.38;;;0.61;100.00
11682;BME280;5897;42.640;23.310;2023-04-05T01:48:21;93389.69;;;0.63;100.00
11682;BME280;5897;42.640;23.310;2023-04-05T01:50:47;93393.09;;;0.60;100.00
11682;BME280;5897;42.640;23.310;2023-04-05T01:53:15;93381.31;;;0.64;100.00
11682;BME280;5897;42.640;23.310;2023-04-05T01:55:41;93394.25;;;0.69;100.00
11682;BME280;5897;42.640;23.310;2023-04-05T01:58:08;93386.31;;;0.83;100.00
11682;BME280;5897;42.640;23.310;2023-04-05T02:00:35;93385.53;;;0.79;100.00
11682;BME280;5897;42.640;23.310;2023-04-05T02:03:03;93387.84;;;0.77;100.00
11682;BME280;5897;42.640;23.310;2023-04-05T02:05:30;93382.88;;;0.90;100.00
11682;BME280;5897;42.640;23.310;2023-04-05T02:07:57;93384.81;;;0.86;100.00
11682;BME280;5897;42.640;23.310;2023-04-05T02:10:24;93386.31;;;0.83;100.00
11682;BME280;5897;42.640;23.310;2023-04-05T02:12:50;93393.16;;;0.77;99.99
11682;BME280;5897;42.640;23.310;2023-04-05T02:15:17;93394.25;;;0.76;99.91
11682;BME280;5897;42.640;23.310;2023-04-05T02:17:44;93388.22;;;0.83;100.00
11682;BME280;5897;42.640;23.310;2023-04-05T02:20:13;93400.75;;;0.82;99.90
11682;BME280;5897;42.640;23.310;2023-04-05T02:22:40;93394.66;;;0.92;100.00
11682;BME280;5897;42.640;23.310;2023-04-05T02:25:10;93395.81;;;0.91;99.88
11682;BME280;5897;42.640;23.310;2023-04-05T02:27:37;93393.16;;;0.95;100.00
11682;BME280;5897;42.640;23.310;2023-04-05T02:30:05;93383.28;;;0.99;100.00
11682;BME280;5897;42.640;23.310;2023-04-05T02:32:32;93392.41;;;0.94;100.00
11682;BME280;5897;42.640;23.310;2023-04-05T02:34:58;93394.28;;;0.94;100.00
11682;BME280;5897;42.640;23.310;2023-04-05T02:37:27;93395.06;;;0.94;100.00
11682;BME280;5897;42.640;23.310;2023-04-05T02:39:53;93394.28;;;0.90;100.00
11682;BME280;5897;42.640;23.310;2023-04-05T02:42:20;93384.44;;;1.01;100.00
11682;BME280;5897;42.640;23.310;2023-04-05T02:44:47;93388.59;;;1.06;100.00
11682;BME280;5897;42.640;23.310;2023-04-05T02:47:14;93379.47;;;1.03;99.82
11682;BME280;5897;42.640;23.310;2023-04-05T02:49:46;93381.00;;;1.04;100.00
11682;BME280;5897;42.640;23.310;2023-04-05T02:52:12;93382.53;;;1.12;100.00
11682;BME280;5897;42.640;23.310;2023-04-05T02:54:40;93391.25;;;1.13;99.53
11682;BME280;5897;42.640;23.310;2023-04-05T02:57:07;93391.66;;;1.11;98.39
11682;BME280;5897;42.640;23.310;2023-04-05T02:59:35;93390.53;;;1.05;98.38
11682;BME280;5897;42.640;23.310;2023-04-05T03:02:02;93386.31;;;1.04;98.34
11682;BME280;5897;42.640;23.310;2023-04-05T03:04:29;93381.41;;;1.10;97.17
11682;BME280;5897;42.640;23.310;2023-04-05T03:06:58;93390.13;;;1.00;97.98
11682;BME280;5897;42.640;23.310;2023-04-05T03:09:27;93385.56;;;1.00;98.01
11682;BME280;5897;42.640;23.310;2023-04-05T03:11:59;93384.81;;;1.00;97.84
11682;BME280;5897;42.640;23.310;2023-04-05T03:14:25;93381.00;;;1.04;97.85
11682;BME280;5897;42.640;23.310;2023-04-05T03:16:52;93385.19;;;1.02;96.88
11682;BME280;5897;42.640;23.310;2023-04-05T03:19:19;93381.75;;;0.80;96.95
11682;BME280;5897;42.640;23.310;2023-04-05T03:21:48;93387.06;;;0.87;98.19
11682;BME280;5897;42.640;23.310;2023-04-05T03:24:15;93378.72;;;0.92;98.77
11682;BME280;5897;42.640;23.310;2023-04-05T03:26:42;93377.22;;;1.09;98.01
11682;BME280;5897;42.640;23.310;2023-04-05T03:29:11;93381.78;;;0.94;98.94
11682;BME280;5897;42.640;23.310;2023-04-05T03:31:38;93384.44;;;1.01;100.00
11682;BME280;5897;42.640;23.310;2023-04-05T03:34:05;93374.94;;;1.07;100.00
11682;BME280;5897;42.640;23.310;2023-04-05T03:36:31;93366.56;;;0.98;100.00
11682;BME280;5897;42.640;23.310;2023-04-05T03:39:07;93383.28;;;0.99;100.00
11682;BME280;5897;42.640;23.310;2023-04-05T03:41:33;93375.31;;;0.95;100.00
11682;BME280;5897;42.640;23.310;2023-04-05T03:44:00;93391.25;;;1.16;100.00
11682;BME280;5897;42.640;23.310;2023-04-05T03:46:31;93397.72;;;0.98;100.00
11682;BME280;5897;42.640;23.310;2023-04-05T03:48:59;93400.75;;;1.03;100.00
11682;BME280;5897;42.640;23.310;2023-04-05T03:51:26;93392.41;;;1.08;100.00
11682;BME280;5897;42.640;23.310;2023-04-05T03:53:53;93403.06;;;1.05;100.00
11682;BME280;5897;42.640;23.310;2023-04-05T03:56:20;93401.53;;;1.07;100.00
11682;BME280;5897;42.640;23.310;2023-04-05T03:58:47;93400.00;;;1.20;100.00
11682;BME280;5897;42.640;23.310;2023-04-05T04:01:14;93405.34;;;1.13;100.00
11682;BME280;5897;42.640;23.310;2023-04-05T04:03:42;93411.44;;;1.14;100.00
11682;BME280;5897;42.640;23.310;2023-04-05T04:06:09;93412.16;;;1.25;100.00
11682;BME280;5897;42.640;23.310;2023-04-05T04:08:36;93417.50;;;1.25;100.00
11682;BME280;5897;42.640;23.310;2023-04-05T04:11:03;93412.56;;;1.30;100.00
11682;BME280;5897;42.640;23.310;2023-04-05T04:13:30;93414.84;;;1.42;100.00
11682;BME280;5897;42.640;23.310;2023-04-05T04:15:57;93406.09;;;1.52;100.00
11682;BME280;5897;42.640;23.310;2023-04-05T04:18:24;93414.81;;;1.21;100.00
11682;BME280;5897;42.640;23.310;2023-04-05T04:20:52;93422.44;;;1.33;100.00
11682;BME280;5897;42.640;23.310;2023-04-05T04:23:19;93418.25;;;1.22;100.00
11682;BME280;5897;42.640;23.310;2023-04-05T04:25:49;93425.09;;;1.26;100.00
11682;BME280;5897;42.640;23.310;2023-04-05T04:28:19;93431.94;;;1.41;100.00
11682;BME280;5897;42.640;23.310;2023-04-05T04:30:45;93419.78;;;1.44;100.00
11682;BME280;5897;42.640;23.310;2023-04-05T04:33:12;93414.06;;;1.38;100.00
11682;BME280;5897;42.640;23.310;2023-04-05T04:35:39;93424.34;;;1.57;99.97
11682;BME280;5897;42.640;23.310;2023-04-05T04:38:07;93431.56;;;1.43;98.81
11682;BME280;5897;42.640;23.310;2023-04-05T04:40:35;93433.47;;;1.46;99.69
11682;BME280;5897;42.640;23.310;2023-04-05T04:43:04;93434.22;;;1.32;98.56
11682;BME280;5897;42.640;23.310;2023-04-05T04:45:31;93428.16;;;1.32;96.35
11682;BME280;5897;42.640;23.310;2023-04-05T04:47:59;93431.59;;;1.39;95.21
11682;BME280;5897;42.640;23.310;2023-04-05T04:50:29;93430.41;;;1.30;93.03
11682;BME280;5897;42.640;23.310;2023-04-05T04:52:57;93433.44;;;1.21;91.84
11682;BME280;5897;42.640;23.310;2023-04-05T04:55:26;93431.94;;;1.17;91.05
11682;BME280;5897;42.640;23.310;2023-04-05T04:57:54;93447.13;;;1.06;91.26
11682;BME280;5897;42.640;23.310;2023-04-05T05:00:22;93438.78;;;1.07;92.63
11682;BME280;5897;42.640;23.310;2023-04-05T05:02:50;93427.34;;;1.00;91.25
11682;BME280;5897;42.640;23.310;2023-04-05T05:05:18;93435.34;;;1.07;92.61
11682;BME280;5897;42.640;23.310;2023-04-05T05:07:47;93429.66;;;1.05;94.64
11682;BME280;5897;42.640;23.310;2023-04-05T05:10:14;93428.91;;;1.11;95.68
11682;BME280;5897;42.640;23.310;2023-04-05T05:12:42;93441.81;;;1.16;97.11
11682;BME280;5897;42.640;23.310;2023-04-05T05:15:10;93435.00;;;1.26;96.41
11682;BME280;5897;42.640;23.310;2023-04-05T05:17:37;93427.78;;;1.44;96.86
11682;BME280;5897;42.640;23.310;2023-04-05T05:20:05;93434.97;;;1.50;98.74
11682;BME280;5897;42.640;23.310;2023-04-05T05:22:33;93445.25;;;1.45;94.17
11682;BME280;5897;42.640;23.310;2023-04-05T05:25:00;93447.91;;;1.41;94.11
11682;BME280;5897;42.640;23.310;2023-04-05T05:27:27;93451.34;;;1.45;95.25
11682;BME280;5897;42.640;23.310;2023-04-05T05:29:55;93440.69;;;1.52;96.40
11682;BME280;5897;42.640;23.310;2023-04-05T05:32:22;93437.28;;;1.48;94.76
11682;BME280;5897;42.640;23.310;2023-04-05T05:34:49;93434.63;;;1.62;96.03
11682;BME280;5897;42.640;23.310;2023-04-05T05:37:16;93438.78;;;1.63;95.06
11682;BME280;5897;42.640;23.310;2023-04-05T05:39:43;93439.53;;;1.74;95.95
11682;BME280;5897;42.640;23.310;2023-04-05T05:42:10;93438.38;;;1.89;95.03
11682;BME280;5897;42.640;23.310;2023-04-05T05:44:36;93436.50;;;1.83;96.90
11682;BME280;5897;42.640;23.310;2023-04-05T05:47:05;93435.69;;;2.00;96.74
11682;BME280;5897;42.640;23.310;2023-04-05T05:49:32;93429.59;;;2.13;93.95
11682;BME280;5897;42.640;23.310;2023-04-05T05:51:58;93439.13;;;1.90;90.78
11682;BME280;5897;42.640;23.310;2023-04-05T05:54:26;93432.28;;;1.96;87.38
11682;BME280;5897;42.640;23.310;2023-04-05T05:56:52;93426.56;;;1.97;87.79
11682;BME280;5897;42.640;23.310;2023-04-05T05:59:19;93421.97;;;2.08;85.90
11682;BME280;5897;42.640;23.310;2023-04-05T06:01:46;93440.25;;;2.13;84.76
11682;BME280;5897;42.640;23.310;2023-04-05T06:04:17;93442.50;;;2.22;82.54
11682;BME280;5897;42.640;23.310;2023-04-05T06:06:44;93445.19;;;2.08;82.09
11682;BME280;5897;42.640;23.310;2023-04-05T06:09:12;93441.00;;;2.10;82.00
11682;BME280;5897;42.640;23.310;2023-04-05T06:11:39;93444.41;;;2.14;81.83
11682;BME280;5897;42.640;23.310;2023-04-05T06:14:06;93448.97;;;2.17;83.16
11682;BME280;5897;42.640;23.310;2023-04-05T06:16:32;93447.44;;;2.16;81.83
11682;BME280;5897;42.640;23.310;2023-04-05T06:19:00;93457.69;;;2.28;79.51
11682;BME280;5897;42.640;23.310;2023-04-05T06:21:28;93464.53;;;2.33;77.72
11682;BME280;5897;42.640;23.310;2023-04-05T06:23:55;93456.53;;;2.33;77.45
11682;BME280;5897;42.640;23.310;2023-04-05T06:26:22;93459.94;;;2.44;79.11
11682;BME280;5897;42.640;23.310;2023-04-05T06:28:52;93453.81;;;2.50;79.70
11682;BME280;5897;42.640;23.310;2023-04-05T06:31:19;93445.47;;;2.38;77.04
11682;BME280;5897;42.640;23.310;2023-04-05T06:33:47;93455.28;;;2.65;78.81
11682;BME280;5897;42.640;23.310;2023-04-05T06:36:13;93468.19;;;2.77;78.48
11682;BME280;5897;42.640;23.310;2023-04-05T06:38:42;93471.97;;;2.87;78.72
11682;BME280;5897;42.640;23.310;2023-04-05T06:41:09;93471.16;;;2.93;78.03
11682;BME280;5897;42.640;23.310;2023-04-05T06:43:35;93477.66;;;2.89;77.69
11682;BME280;5897;42.640;23.310;2023-04-05T06:46:02;93467.72;;;2.93;78.14
11682;BME280;5897;42.640;23.310;2023-04-05T06:48:33;93470.69;;;3.09;78.26
11682;BME280;5897;42.640;23.310;2023-04-05T06:51:01;93471.75;;;3.25;76.59
11682;BME280;5897;42.640;23.310;2023-04-05T06:53:28;93478.94;;;3.35;77.05
11682;BME280;5897;42.640;23.310;2023-04-05T06:55:58;93477.69;;;3.50;75.54
11682;BME280;5897;42.640;23.310;2023-04-05T06:58:25;93486.41;;;3.54;74.62
11682;BME280;5897;42.640;23.310;2023-04-05T07:00:53;93479.25;;;3.44;75.00
11682;BME280;5897;42.640;23.310;2023-04-05T07:03:20;93495.22;;;3.51;75.50
11682;BME280;5897;42.640;23.310;2023-04-05T07:05:50;93502.91;;;3.42;73.35
11682;BME280;5897;42.640;23.310;2023-04-05T07:08:18;93498.66;;;3.48;73.14
11682;BME280;5897;42.640;23.310;2023-04-05T07:10:45;93500.72;;;3.27;72.02
11682;BME280;5897;42.640;23.310;2023-04-05T07:13:14;93495.72;;;3.36;75.94
11682;BME280;5897;42.640;23.310;2023-04-05T07:15:41;93497.88;;;3.55;76.08
11682;BME280;5897;42.640;23.310;2023-04-05T07:18:08;93504.00;;;3.48;75.56
11682;BME280;5897;42.640;23.310;2023-04-05T07:20:35;93513.97;;;3.41;72.54
11682;BME280;5897;42.640;23.310;2023-04-05T07:23:02;93508.28;;;3.35;73.80
11682;BME280;5897;42.640;23.310;2023-04-05T07:25:30;93516.00;;;3.19;73.82
11682;BME280;5897;42.640;23.310;2023-04-05T07:27:57;93516.06;;;3.09;75.64
11682;BME280;5897;42.640;23.310;2023-04-05T07:30:26;93510.66;;;3.19;74.44
11682;BME280;5897;42.640;23.310;2023-04-05T07:32:53;93508.75;;;3.23;77.06
11682;BME280;5897;42.640;23.310;2023-04-05T07:35:20;93495.44;;;3.16;75.75
11682;BME280;5897;42.640;23.310;2023-04-05T07:37:47;93519.81;;;3.22;76.65
11682;BME280;5897;42.640;23.310;2023-04-05T07:40:14;93508.34;;;3.28;76.30
11682;BME280;5897;42.640;23.310;2023-04-05T07:42:41;93517.13;;;3.25;75.63
11682;BME280;5897;42.640;23.310;2023-04-05T07:45:08;93513.00;;;3.10;76.99
11682;BME280;5897;42.640;23.310;2023-04-05T07:47:36;93515.66;;;3.17;76.75
11682;BME280;5897;42.640;23.310;2023-04-05T07:50:04;93507.75;;;2.89;75.97
11682;BME280;5897;42.640;23.310;2023-04-05T07:52:34;93524.84;;;3.02;76.85
11682;BME280;5897;42.640;23.310;2023-04-05T07:55:00;93517.63;;;3.03;76.49
11682;BME280;5897;42.640;23.310;2023-04-05T07:57:27;93532.94;;;2.85;77.52
11682;BME280;5897;42.640;23.310;2023-04-05T07:59:55;93535.13;;;3.07;77.46
11682;BME280;5897;42.640;23.310;2023-04-05T08:02:21;93534.44;;;2.93;76.53
11682;BME280;5897;42.640;23.310;2023-04-05T08:04:50;93535.13;;;3.07;77.84
11682;BME280;5897;42.640;23.310;2023-04-05T08:07:16;93539.31;;;3.05;77.50
11682;BME280;5897;42.640;23.310;2023-04-05T08:09:43;93537.84;;;2.97;77.34
11682;BME280;5897;42.640;23.310;2023-04-05T08:12:10;93538.16;;;3.16;77.82
11682;BME280;5897;42.640;23.310;2023-04-05T08:14:37;93539.69;;;3.14;78.79
11682;BME280;5897;42.640;23.310;2023-04-05T08:17:03;93549.94;;;3.15;77.22
11682;BME280;5897;42.640;23.310;2023-04-05T08:19:30;93548.06;;;3.12;77.83
11682;BME280;5897;42.640;23.310;2023-04-05T08:21:58;93538.91;;;3.13;77.43
11682;BME280;5897;42.640;23.310;2023-04-05T08:24:25;93540.09;;;3.05;77.41
11682;BME280;5897;42.640;23.310;2023-04-05T08:26:52;93554.28;;;2.88;76.70
11682;BME280;5897;42.640;23.310;2023-04-05T08:29:19;93551.97;;;2.87;79.51
11682;BME280;5897;42.640;23.310;2023-04-05T08:31:46;93555.00;;;2.96;79.85
11682;BME280;5897;42.640;23.310;2023-04-05T08:34:12;93549.63;;;3.06;79.96
11682;BME280;5897;42.640;23.310;2023-04-05T08:36:39;93538.53;;;3.11;79.03
11682;BME280;5897;42.640;23.310;2023-04-05T08:39:07;93554.56;;;3.11;79.20
11682;BME280;5897;42.640;23.310;2023-04-05T08:41:40;93552.31;;;2.99;79.23
11682;BME280;5897;42.640;23.310;2023-04-05T08:44:11;93555.72;;;3.03;78.54
11682;BME280;5897;42.640;23.310;2023-04-05T08:46:41;93550.78;;;2.95;77.97
11682;BME280;5897;42.640;23.310;2023-04-05T08:49:09;93560.34;;;2.92;78.26
11682;BME280;5897;42.640;23.310;2023-04-05T08:51:37;93559.56;;;2.99;79.94
11682;BME280;5897;42.640;23.310;2023-04-05T08:54:04;93563.72;;;3.10;79.87
11682;BME280;5897;42.640;23.310;2023-04-05T08:56:34;93564.03;;;3.23;79.77
11682;BME280;5897;42.640;23.310;2023-04-05T08:59:03;93549.63;;;3.03;79.61
11682;BME280;5897;42.640;23.310;2023-04-05T09:01:35;93564.44;;;3.14;78.79
11682;BME280;5897;42.640;23.310;2023-04-05T09:04:05;93556.09;;;3.05;77.90
11682;BME280;5897;42.640;23.310;2023-04-05T09:06:34;93568.72;;;2.94;77.27
11682;BME280;5897;42.640;23.310;2023-04-05T09:09:05;93570.53;;;3.18;76.87
11682;BME280;5897;42.640;23.310;2023-04-05T09:11:33;93584.97;;;3.31;77.07
11682;BME280;5897;42.640;23.310;2023-04-05T09:14:02;93593.72;;;3.35;75.62
11682;BME280;5897;42.640;23.310;2023-04-05T09:16:29;93587.94;;;3.47;76.53
11682;BME280;5897;42.640;23.310;2023-04-05T09:18:56;93582.53;;;3.58;77.97
11682;BME280;5897;42.640;23.310;2023-04-05T09:21:23;93589.81;;;3.54;76.58
11682;BME280;5897;42.640;23.310;2023-04-05T09:23:52;93594.75;;;3.62;75.13
11682;BME280;5897;42.640;23.310;2023-04-05T09:26:21;93596.94;;;3.78;76.16
11682;BME280;5897;42.640;23.310;2023-04-05T09:28:50;93591.50;;;3.88;72.73
11682;BME280;5897;42.640;23.310;2023-04-05T09:31:33;93585.00;;;3.89;75.25
11682;BME280;5897;42.640;23.310;2023-04-05T09:34:01;93591.41;;;4.06;75.49
11682;BME280;5897;42.640;23.310;2023-04-05T09:36:29;93575.59;;;4.25;77.87
11682;BME280;5897;42.640;23.310;2023-04-05T09:39:04;93577.50;;;4.69;77.50
11682;BME280;5897;42.640;23.310;2023-04-05T09:41:32;93562.00;;;5.20;75.07
11682;BME280;5897;42.640;23.310;2023-04-05T09:44:00;93572.88;;;5.70;72.27
11682;BME280;5897;42.640;23.310;2023-04-05T09:46:31;93570.06;;;5.80;70.92
11682;BME280;5897;42.640;23.310;2023-04-05T09:49:00;93566.50;;;5.90;71.13
11682;BME280;5897;42.640;23.310;2023-04-05T09:51:32;93575.44;;;5.80;72.08
11682;BME280;5897;42.640;23.310;2023-04-05T09:54:00;93571.50;;;5.58;73.64
11682;BME280;5897;42.640;23.310;2023-04-05T09:56:29;93572.34;;;5.52;72.13
11682;BME280;5897;42.640;23.310;2023-04-05T09:59:08;93576.97;;;5.18;72.38
11682;BME280;5897;42.640;23.310;2023-04-05T10:01:36;93584.69;;;5.12;72.99
11682;BME280;5897;42.640;23.310;2023-04-05T10:04:02;93578.44;;;5.22;72.18
11682;BME280;5897;42.640;23.310;2023-04-05T10:06:36;93585.50;;;5.09;71.01
11682;BME280;5897;42.640;23.310;2023-04-05T10:09:04;93576.50;;;5.26;67.36
11682;BME280;5897;42.640;23.310;2023-04-05T10:11:32;93584.00;;;5.38;68.89
11682;BME280;5897;42.640;23.310;2023-04-05T10:14:02;93596.38;;;5.25;66.83
11682;BME280;5897;42.640;23.310;2023-04-05T10:16:32;93583.28;;;5.01;68.10
11682;BME280;5897;42.640;23.310;2023-04-05T10:18:59;93589.59;;;4.80;69.38
11682;BME280;5897;42.640;23.310;2023-04-05T10:21:29;93593.03;;;4.81;67.63
11682;BME280;5897;42.640;23.310;2023-04-05T10:24:03;93580.16;;;4.69;69.61
11682;BME280;5897;42.640;23.310;2023-04-05T10:26:36;93592.84;;;4.61;70.44
11682;BME280;5897;42.640;23.310;2023-04-05T10:29:11;93592.72;;;4.75;68.99
11682;BME280;5897;42.640;23.310;2023-04-05T10:31:50;93593.59;;;4.65;69.62
11682;BME280;5897;42.640;23.310;2023-04-05T10:34:29;93584.25;;;5.17;68.99
11682;BME280;5897;42.640;23.310;2023-04-05T10:36:58;93585.66;;;5.25;67.16
11682;BME280;5897;42.640;23.310;2023-04-05T10:39:27;93589.91;;;5.23;67.09
11682;BME280;5897;42.640;23.310;2023-04-05T10:41:59;93571.72;;;5.07;66.53
11682;BME280;5897;42.640;23.310;2023-04-05T10:44:29;93580.00;;;4.86;67.68
11682;BME280;5897;42.640;23.310;2023-04-05T10:46:57;93590.97;;;4.95;68.03
11682;BME280;5897;42.640;23.310;2023-04-05T10:49:31;93613.00;;;4.73;69.00
11682;BME280;5897;42.640;23.310;2023-04-05T10:52:00;93582.31;;;4.40;69.10
11682;BME280;5897;42.640;23.310;2023-04-05T10:54:28;93600.25;;;4.47;68.68
11682;BME280;5897;42.640;23.310;2023-04-05T10:56:58;93606.81;;;4.39;70.34
11682;BME280;5897;42.640;23.310;2023-04-05T10:59:28;93603.28;;;4.49;71.06
11682;BME280;5897;42.640;23.310;2023-04-05T11:01:56;93613.09;;;4.62;70.88
11682;BME280;5897;42.640;23.310;2023-04-05T11:04:23;93609.78;;;4.48;70.52
11682;BME280;5897;42.640;23.310;2023-04-05T11:07:11;93604.00;;;4.53;69.74
11682;BME280;5897;42.640;23.310;2023-04-05T11:09:39;93612.00;;;4.56;69.16
11682;BME280;5897;42.640;23.310;2023-04-05T11:12:15;93614.78;;;4.46;68.86
11682;BME280;5897;42.640;23.310;2023-04-05T11:14:44;93619.03;;;4.40;68.61
11682;BME280;5897;42.640;23.310;2023-04-05T11:17:23;93622.13;;;4.35;69.73
11682;BME280;5897;42.640;23.310;2023-04-05T11:19:50;93619.09;;;4.29;70.23
11682;BME280;5897;42.640;23.310;2023-04-05T11:22:25;93613.59;;;4.47;70.89
11682;BME280;5897;42.640;23.310;2023-04-05T11:24:53;93613.94;;;4.56;70.83
11682;BME280;5897;42.640;23.310;2023-04-05T11:27:24;93624.44;;;4.29;69.57
11682;BME280;5897;42.640;23.310;2023-04-05T11:29:54;93620.81;;;4.06;71.20
11682;BME280;5897;42.640;23.310;2023-04-05T11:32:22;93614.97;;;4.21;70.99
11682;BME280;5897;42.640;23.310;2023-04-05T11:35:01;93610.00;;;4.20;70.71
11682;BME280;5897;42.640;23.310;2023-04-05T11:37:52;93619.94;;;4.19;69.86
11682;BME280;5897;42.640;23.310;2023-04-05T11:40:27;93618.41;;;4.22;70.41
11682;BME280;5897;42.640;23.310;2023-04-05T11:42:58;93615.06;;;4.55;69.93
11682;BME280;5897;42.640;23.310;2023-04-05T11:45:28;93613.53;;;4.54;70.30
11682;BME280;5897;42.640;23.310;2023-04-05T11:47:56;93608.41;;;4.73;70.05
11682;BME280;5897;42.640;23.310;2023-04-05T11:50:22;93610.03;;;4.64;69.46
11682;BME280;5897;42.640;23.310;2023-04-05T11:53:07;93605.84;;;4.63;69.25
11682;BME280;5897;42.640;23.310;2023-04-05T11:55:35;93610.84;;;4.57;68.98
11682;BME280;5897;42.640;23.310;2023-04-05T11:58:02;93602.50;;;4.52;70.15
11682;BME280;5897;42.640;23.310;2023-04-05T12:00:30;93593.09;;;4.33;70.68
11682;BME280;5897;42.640;23.310;2023-04-05T12:02:57;93587.78;;;4.30;71.73
11682;BME280;5897;42.640;23.310;2023-04-05T12:05:23;93605.06;;;4.62;70.10
11682;BME280;5897;42.640;23.310;2023-04-05T12:07:51;93618.44;;;4.62;69.82
11682;BME280;5897;42.640;23.310;2023-04-05T12:10:19;93605.06;;;4.62;70.26
11682;BME280;5897;42.640;23.310;2023-04-05T12:12:46;93607.13;;;4.88;69.99
11682;BME280;5897;42.640;23.310;2023-04-05T12:15:14;93582.69;;;4.86;68.36
11682;BME280;5897;42.640;23.310;2023-04-05T12:17:48;93609.94;;;5.11;68.75
11682;BME280;5897;42.640;23.310;2023-04-05T12:20:18;93610.63;;;5.19;68.29
11682;BME280;5897;42.640;23.310;2023-04-05T12:22:46;93606.25;;;4.98;68.92
11682;BME280;5897;42.640;23.310;2023-04-05T12:25:14;93609.94;;;5.11;69.61
11682;BME280;5897;42.640;23.310;2023-04-05T12:27:41;93610.03;;;5.04;68.86
11682;BME280;5897;42.640;23.310;2023-04-05T12:30:11;93614.59;;;4.63;69.44
11682;BME280;5897;42.640;23.310;2023-04-05T12:32:41;93609.91;;;4.74;69.68
11682;BME280;5897;42.640;23.310;2023-04-05T12:35:11;93600.41;;;4.70;70.92
11682;BME280;5897;42.640;23.310;2023-04-05T12:37:39;93610.19;;;4.87;70.53
11682;BME280;5897;42.640;23.310;2023-04-05T12:40:07;93600.19;;;4.50;72.83
11682;BME280;5897;42.640;23.310;2023-04-05T12:42:35;93598.44;;;4.77;70.98
11682;BME280;5897;42.640;23.310;2023-04-05T12:45:03;93600.38;;;4.73;71.55
11682;BME280;5897;42.640;23.310;2023-04-05T12:47:32;93618.59;;;4.85;70.81
11682;BME280;5897;42.640;23.310;2023-04-05T12:50:11;93617.41;;;4.49;71.57
11682;BME280;5897;42.640;23.310;2023-04-05T12:52:38;93610.09;;;4.57;70.00
11682;BME280;5897;42.640;23.310;2023-04-05T12:55:13;93608.31;;;4.40;70.55
11682;BME280;5897;42.640;23.310;2023-04-05T12:57:41;93623.31;;;4.30;70.99
11682;BME280;5897;42.640;23.310;2023-04-05T13:00:09;93628.94;;;4.39;72.34
11682;BME280;5897;42.640;23.310;2023-04-05T13:02:36;93618.63;;;4.41;72.42
11682;BME280;5897;42.640;23.310;2023-04-05T13:05:03;93625.09;;;4.47;72.52
11682;BME280;5897;42.640;23.310;2023-04-05T13:07:31;93623.84;;;4.08;72.83
11682;BME280;5897;42.640;23.310;2023-04-05T13:09:58;93621.97;;;4.05;74.30
11682;BME280;5897;42.640;23.310;2023-04-05T13:12:25;93636.16;;;3.95;74.33
11682;BME280;5897;42.640;23.310;2023-04-05T13:14:51;93624.13;;;3.62;73.78
11682;BME280;5897;42.640;23.310;2023-04-05T13:17:18;93630.88;;;3.77;73.80
11682;BME280;5897;42.640;23.310;2023-04-05T13:19:45;93632.44;;;3.78;72.79
11682;BME280;5897;42.640;23.310;2023-04-05T13:22:11;93628.94;;;3.85;72.78